Current Conditions
Partly Cloudy
Conditions



Pressure
1026.92 (hPa) - 30.32 (inHG)
Visibility

10.0 (km) - 6.2 (miles)
   Temperature
6  °C
43°F
4  °C
Dewpoint
87  %
 Humidity
   Wind Speed
0  km/h
0  kts
0  mph
0  m/s
   Wind Direction
Calm
Due North
   Airport Data
YMML
Location Melbourne International Airport 60 km (37.29 mi)
Metar :YMML 252100Z 00000KT 9999 FEW028 BKN040 06/04 Q1027
Sun 26th September 07:00 am
   Raw Metar Info
Raw METAR is the most common format in the world for the transmission of observational weather data. It is highly standardized through the International Civil Aviation Organization (ICAO), which allows it to be understood throughout most of the world.
   API Info
Data Provided by
https://www.checkwx.com/weather/YMML
   © Info
CSS/SVG/PHP scripts were developed by weather34.com for use in the weather34 template © 2015-2021

Guide Info provided by Metar-Wikipedia